KCEW/CEW METAR and TAF weather

Enter ICAO airport designator
Station Type Date Time Source
KCEW METAR 2019/06/17 06:53 UTC NOAA

KCEW 170653Z AUTO 00000KT 9SM CLR 21/19 A3000 RMK AO2 SLP155 T02110194


Station Type Date Time Source
KCEW Decoded METAR 2019/06/17 06:53 UTC NOAA

CRESTVIEW SIKES AIRPORT, FL, United States (KCEW) 30-46N 086-31W 55M
Jun 17, 2019 - 02:53 AM EDT / 2019.06.17 0653 UTC
Wind: Calm:0
Visibility: 9 mile(s):0
Sky conditions: clear
Temperature: 70.0 F (21.1 C)
Dew Point: 66.9 F (19.4 C)
Relative Humidity: 90%
Pressure (altimeter): 30 in. Hg (1015 hPa)
ob: KCEW 170653Z AUTO 00000KT 9SM CLR 21/19 A3000 RMK AO2 SLP155 T02110194
cycle: 7

Station Type Date Time Source
KCEW TAF UTC NOAA

Error!

Example: see airport list